Time;durP1;ratioP1;P1;durP2;ratioP2;P2;SDS_P1;SDS_P2;PMS_P1;PMS_P2;Temp;Humidity;BMP_temperature;BMP_pressure;BME280_temperature;BME280_humidity;BME280_pressure;Samples;Min_cycle;Max_cycle;Signal;HPM_P1;HPM_P2
2022/02/15 00:01:15;;;;;;;8.63;5.67;;;7.80;1.00;;;;;;5079429;28;20806;-71
2022/02/15 00:03:40;;;;;;;7.03;5.30;;;7.80;1.00;;;;;;5086431;28;20178;-71
2022/02/15 00:06:06;;;;;;;8.27;5.10;;;7.80;1.00;;;;;;5081196;28;20244;-71
2022/02/15 00:08:35;;;;;;;9.20;5.60;;;7.80;1.00;;;;;;5082867;28;20184;-71
2022/02/15 00:11:01;;;;;;;10.30;5.83;;;7.90;1.00;;;;;;5083862;28;20611;-71
2022/02/15 00:13:27;;;;;;;9.87;5.40;;;7.80;1.00;;;;;;5088740;28;20455;-71
2022/02/15 00:15:53;;;;;;;8.77;5.80;;;7.80;1.00;;;;;;5084378;28;20223;-71
2022/02/15 00:18:19;;;;;;;9.03;6.40;;;7.80;1.00;;;;;;5080157;28;20182;-71
2022/02/15 00:20:45;;;;;;;10.67;5.90;;;7.80;1.00;;;;;;5076504;28;20903;-71
2022/02/15 00:23:11;;;;;;;9.60;6.00;;;7.80;1.00;;;;;;5076124;28;20657;-71
2022/02/15 00:25:37;;;;;;;11.47;6.87;;;7.90;1.00;;;;;;5086842;28;20518;-71
2022/02/15 00:28:03;;;;;;;11.57;6.40;;;7.90;1.00;;;;;;5074472;28;20421;-71
2022/02/15 00:30:29;;;;;;;13.73;6.00;;;7.80;1.00;;;;;;5077111;28;20879;-71
2022/02/15 00:32:55;;;;;;;8.27;5.77;;;7.80;1.00;;;;;;5077808;28;20462;-71
2022/02/15 00:35:21;;;;;;;10.37;6.30;;;7.80;1.00;;;;;;5072853;28;20528;-71
2022/02/15 00:37:47;;;;;;;10.80;6.43;;;7.80;1.00;;;;;;5087235;28;20258;-71
2022/02/15 00:40:13;;;;;;;12.17;6.70;;;7.80;1.00;;;;;;5083947;28;20561;-71
2022/02/15 00:42:40;;;;;;;14.17;7.30;;;7.80;1.00;;;;;;5081083;28;20897;-71
2022/02/15 00:45:07;;;;;;;11.47;6.53;;;7.80;1.00;;;;;;5087204;28;20441;-72
2022/02/15 00:47:35;;;;;;;8.67;5.73;;;7.70;1.00;;;;;;5094677;28;20457;-72
2022/02/15 00:50:03;;;;;;;11.27;6.77;;;7.70;1.00;;;;;;5087304;28;20408;-72
2022/02/15 00:52:29;;;;;;;14.60;6.93;;;7.70;1.00;;;;;;5091294;28;20483;-72
2022/02/15 00:54:55;;;;;;;13.07;6.80;;;7.70;1.00;;;;;;5087282;28;20479;-72
2022/02/15 00:57:22;;;;;;;11.73;7.27;;;7.50;1.00;;;;;;5092949;28;20497;-72
2022/02/15 00:59:51;;;;;;;13.40;7.47;;;7.50;1.00;;;;;;5088257;28;20247;-71
2022/02/15 01:02:17;;;;;;;12.83;6.10;;;7.40;1.00;;;;;;5091939;28;20957;-71
2022/02/15 01:04:44;;;;;;;11.90;7.20;;;7.50;1.00;;;;;;5082629;28;20465;-71
2022/02/15 01:07:10;;;;;;;11.00;6.60;;;7.50;1.00;;;;;;5075995;28;20464;-71
2022/02/15 01:09:35;;;;;;;13.33;7.17;;;7.50;1.00;;;;;;5096758;28;20420;-71
2022/02/15 01:12:02;;;;;;;13.87;7.40;;;7.40;1.00;;;;;;5079290;28;20421;-71
2022/02/15 01:14:36;;;;;;;17.27;8.13;;;7.40;1.00;;;;;;5077460;28;20179;-71
2022/02/15 01:17:02;;;;;;;10.70;6.40;;;7.30;1.00;;;;;;5082629;28;20416;-71
2022/02/15 01:19:29;;;;;;;12.80;6.90;;;9.30;1.00;;;;;;5088677;28;20420;-71
2022/02/15 01:21:54;;;;;;;16.33;8.43;;;7.30;1.00;;;;;;5077812;28;20425;-71
2022/02/15 01:24:23;;;;;;;16.30;8.17;;;7.20;1.00;;;;;;5089287;28;20425;-71
2022/02/15 01:26:49;;;;;;;20.73;7.60;;;7.20;1.00;;;;;;5077433;28;20198;-71
2022/02/15 01:29:17;;;;;;;16.60;7.70;;;7.20;1.00;;;;;;5076754;28;20432;-71
2022/02/15 01:31:43;;;;;;;13.20;7.87;;;7.20;1.00;;;;;;5079060;28;20269;-71
2022/02/15 01:34:09;;;;;;;12.40;7.17;;;7.20;1.00;;;;;;5076472;28;20949;-71
2022/02/15 01:36:34;;;;;;;19.00;8.70;;;7.20;1.00;;;;;;5080620;28;20277;-71
2022/02/15 01:39:00;;;;;;;12.93;7.83;;;7.20;1.00;;;;;;5085845;28;20178;-71
2022/02/15 01:41:26;;;;;;;11.23;7.43;;;7.20;1.00;;;;;;5095115;28;20182;-71
2022/02/15 01:44:00;;;;;;;11.67;6.50;;;7.10;1.00;;;;;;5091623;28;20174;-71
2022/02/15 01:46:25;;;;;;;11.73;6.53;;;7.10;1.00;;;;;;5076666;28;20206;-73
2022/02/15 01:48:59;;;;;;;13.37;7.60;;;7.20;1.00;;;;;;5076752;28;20409;-72
2022/02/15 01:51:27;;;;;;;14.00;7.70;;;7.20;1.00;;;;;;5084305;28;20181;-72
2022/02/15 01:53:53;;;;;;;13.50;7.93;;;7.20;1.00;;;;;;5081322;28;20536;-72
2022/02/15 01:56:26;;;;;;;19.83;8.10;;;7.20;1.00;;;;;;5085484;28;20412;-73
2022/02/15 01:58:52;;;;;;;16.97;9.00;;;7.20;1.00;;;;;;5078183;28;20432;-72
2022/02/15 02:01:24;;;;;;;17.73;8.70;;;7.30;1.00;;;;;;5086088;28;20428;-72
2022/02/15 02:03:49;;;;;;;12.63;8.20;;;7.30;1.00;;;;;;5092522;28;20420;-73
2022/02/15 02:06:17;;;;;;;14.13;8.10;;;7.30;1.00;;;;;;5086406;28;20457;-73
2022/02/15 02:08:43;;;;;;;17.50;9.50;;;7.30;1.00;;;;;;5075869;28;20670;-72
2022/02/15 02:11:11;;;;;;;17.00;8.53;;;7.40;1.00;;;;;;5078937;28;20417;-73
2022/02/15 02:13:37;;;;;;;16.90;8.90;;;7.40;1.00;;;;;;5089520;28;20179;-73
2022/02/15 02:16:03;;;;;;;14.57;9.43;;;7.40;1.00;;;;;;5087214;28;20413;-72
2022/02/15 02:18:29;;;;;;;15.73;8.90;;;7.50;1.00;;;;;;5081071;28;20177;-71
2022/02/15 02:20:55;;;;;;;20.00;9.60;;;7.50;1.00;;;;;;5076733;28;20797;-71
2022/02/15 02:23:21;;;;;;;14.87;9.27;;;7.50;1.00;;;;;;5077405;28;20425;-71
2022/02/15 02:25:47;;;;;;;16.60;8.67;;;7.60;1.00;;;;;;5075379;28;20688;-72
2022/02/15 02:28:13;;;;;;;16.73;9.83;;;7.60;1.00;;;;;;5080770;28;20383;-71
2022/02/15 02:30:45;;;;;;;17.00;9.60;;;7.60;1.00;;;;;;5091436;28;21010;-72
2022/02/15 02:33:11;;;;;;;13.70;8.30;;;7.60;1.00;;;;;;5077534;28;20261;-71
2022/02/15 02:35:36;;;;;;;15.90;8.60;;;7.60;1.00;;;;;;5086692;28;20488;-72
2022/02/15 02:38:02;;;;;;;18.27;8.93;;;7.60;1.00;;;;;;5080570;28;20485;-71
2022/02/15 02:40:28;;;;;;;15.90;9.33;;;7.60;1.00;;;;;;5083033;28;20580;-71
2022/02/15 02:43:00;;;;;;;13.87;7.80;;;7.60;1.00;;;;;;5079088;28;20440;-71
2022/02/15 02:45:29;;;;;;;16.07;8.43;;;7.60;1.00;;;;;;5075151;28;20170;-71
2022/02/15 02:47:56;;;;;;;13.73;7.50;;;7.50;1.00;;;;;;5088464;28;20898;-73
2022/02/15 02:50:35;;;;;;;19.63;7.87;;;7.50;1.00;;;;;;5087377;28;20409;-72
2022/02/15 02:53:01;;;;;;;10.90;7.27;;;7.50;1.00;;;;;;5074613;28;20434;-72
2022/02/15 02:55:29;;;;;;;13.87;8.17;;;7.50;1.00;;;;;;5088560;28;20460;-72
2022/02/15 02:57:55;;;;;;;17.40;7.87;;;7.50;1.00;;;;;;5074608;28;20175;-73
2022/02/15 03:00:23;;;;;;;16.43;8.03;;;7.50;1.00;;;;;;5089687;28;20409;-73
2022/02/15 03:02:49;;;;;;;15.43;7.73;;;7.50;1.00;;;;;;5084422;28;20549;-71
2022/02/15 03:05:17;;;;;;;15.37;8.50;;;7.50;1.00;;;;;;5076738;28;20417;-71
2022/02/15 03:07:43;;;;;;;16.17;7.83;;;7.50;1.00;;;;;;5079200;28;20733;-71
2022/02/15 03:10:09;;;;;;;12.23;7.33;;;7.50;1.00;;;;;;5092587;28;20420;-71
2022/02/15 03:12:34;;;;;;;12.07;7.53;;;7.50;1.00;;;;;;5075814;28;20224;-71
2022/02/15 03:15:00;;;;;;;16.53;7.83;;;7.50;1.00;;;;;;5088049;28;20403;-71
2022/02/15 03:17:26;;;;;;;14.00;7.90;;;7.50;1.00;;;;;;5080672;28;20319;-72
2022/02/15 03:19:54;;;;;;;15.77;7.90;;;7.50;1.00;;;;;;5085818;28;20451;-71
2022/02/15 03:22:20;;;;;;;16.50;7.20;;;7.40;1.00;;;;;;5075868;28;20421;-71
2022/02/15 03:24:46;;;;;;;11.13;6.10;;;7.40;1.00;;;;;;5084768;28;20516;-71
2022/02/15 03:27:12;;;;;;;18.37;7.50;;;7.40;1.00;;;;;;5080565;28;20461;-71
2022/02/15 03:29:38;;;;;;;13.80;6.63;;;7.20;1.00;;;;;;5087521;28;20416;-71
2022/02/15 03:32:04;;;;;;;13.93;6.53;;;7.10;1.00;;;;;;5085433;28;20770;-73
2022/02/15 03:34:36;;;;;;;13.10;6.40;;;7.10;1.00;;;;;;5074351;28;20641;-73
2022/02/15 03:37:01;;;;;;;11.37;6.10;;;7.10;1.00;;;;;;5083999;28;20896;-73
2022/02/15 03:39:29;;;;;;;11.87;6.80;;;7.10;1.00;;;;;;5079484;28;20516;-73
2022/02/15 03:44:54;;;;;;;14.70;6.60;;;7.00;1.00;;;;;;5078773;28;20770;-73
2022/02/15 03:47:23;;;;;;;10.13;6.07;;;7.00;1.00;;;;;;5087915;28;20922;-73
2022/02/15 03:49:49;;;;;;;10.00;6.30;;;7.00;1.00;;;;;;5073999;28;20420;-73
2022/02/15 03:52:15;;;;;;;10.87;6.33;;;7.00;1.00;;;;;;5073850;28;20417;-73
2022/02/15 03:54:40;;;;;;;10.23;5.87;;;7.10;1.00;;;;;;5072634;28;20211;-73
2022/02/15 03:57:23;;;;;;;14.03;6.97;;;7.10;1.00;;;;;;5075417;28;20653;-73
2022/02/15 03:59:53;;;;;;;11.90;5.97;;;7.10;1.00;;;;;;5074440;28;20181;-73
2022/02/15 04:02:19;;;;;;;11.40;6.40;;;7.10;1.00;;;;;;5086753;28;20416;-72
2022/02/15 04:04:54;;;;;;;11.40;6.67;;;7.10;1.00;;;;;;5087776;28;20415;-73
2022/02/15 04:07:19;;;;;;;11.47;6.80;;;7.10;1.00;;;;;;5075254;28;20564;-73
2022/02/15 04:09:45;;;;;;;13.33;6.17;;;7.10;1.00;;;;;;5089105;28;20435;-73
2022/02/15 04:12:29;;;;;;;12.23;6.10;;;7.20;1.00;;;;;;5074300;28;20653;-73
2022/02/15 04:15:06;;;;;;;10.60;6.30;;;7.20;1.00;;;;;;5086626;28;20531;-73
2022/02/15 04:17:32;;;;;;;11.67;6.50;;;7.20;1.00;;;;;;5081728;28;20416;-71
2022/02/15 04:19:57;;;;;;;11.53;5.97;;;7.20;1.00;;;;;;5076904;28;20505;-71
2022/02/15 04:22:23;;;;;;;15.50;6.20;;;7.30;1.00;;;;;;5075736;28;20479;-71
2022/02/15 04:24:49;;;;;;;20.90;6.40;;;7.40;1.00;;;;;;5081349;28;20262;-71
2022/02/15 04:27:15;;;;;;;10.80;6.23;;;7.30;1.00;;;;;;5073420;28;20547;-72
2022/02/15 04:29:42;;;;;;;15.73;6.03;;;7.40;1.00;;;;;;5078626;28;20189;-71
2022/02/15 04:32:14;;;;;;;8.80;5.40;;;7.40;1.00;;;;;;5086568;28;21202;-71
2022/02/15 04:34:39;;;;;;;8.50;5.90;;;7.40;1.00;;;;;;5075987;28;20445;-71
2022/02/15 04:37:05;;;;;;;13.97;6.67;;;7.50;1.00;;;;;;5076780;28;20448;-71
2022/02/15 04:39:31;;;;;;;8.97;5.30;;;7.50;1.00;;;;;;5077016;28;20261;-72
2022/02/15 04:41:57;;;;;;;8.97;5.97;;;7.50;1.00;;;;;;5082478;28;20179;-71
2022/02/15 04:44:22;;;;;;;11.43;6.07;;;7.50;1.00;;;;;;5078606;28;20452;-72
2022/02/15 04:46:48;;;;;;;9.43;5.50;;;7.50;1.00;;;;;;5074726;28;20623;-71
2022/02/15 04:49:23;;;;;;;9.57;5.53;;;7.50;1.00;;;;;;5079304;28;20189;-73
2022/02/15 04:51:49;;;;;;;10.80;5.43;;;7.70;1.00;;;;;;5085161;28;20241;-72
2022/02/15 04:54:17;;;;;;;7.87;4.73;;;7.60;1.00;;;;;;5079598;28;20470;-72
2022/02/15 04:56:43;;;;;;;12.53;5.50;;;7.50;1.00;;;;;;5085217;28;20190;-73
2022/02/15 04:59:09;;;;;;;8.17;4.97;;;7.60;1.00;;;;;;5079828;28;20419;-73
2022/02/15 05:01:35;;;;;;;9.83;5.60;;;7.60;1.00;;;;;;5074295;28;20872;-73
2022/02/15 05:04:01;;;;;;;14.03;6.07;;;7.70;1.00;;;;;;5078044;28;20408;-73
2022/02/15 05:06:30;;;;;;;11.73;5.50;;;7.60;1.00;;;;;;5081313;28;20503;-73
2022/02/15 05:08:55;;;;;;;7.27;4.70;;;7.70;1.00;;;;;;5089798;28;20169;-73
2022/02/15 05:11:35;;;;;;;8.43;5.63;;;8.20;1.00;;;;;;5095146;28;20774;-72
2022/02/15 05:14:02;;;;;;;13.23;6.20;;;7.70;1.00;;;;;;5083844;28;20645;-72
2022/02/15 05:16:28;;;;;;;7.47;4.70;;;7.70;1.00;;;;;;5084605;28;20428;-72
2022/02/15 05:18:54;;;;;;;10.00;5.30;;;;;;;;;;5075244;28;20439;-71
2022/02/15 05:21:20;;;;;;;11.50;5.50;;;7.70;1.00;;;;;;5090495;28;20637;-72
2022/02/15 05:23:45;;;;;;;9.80;5.90;;;7.70;1.00;;;;;;5075062;28;20436;-71
2022/02/15 05:26:11;;;;;;;11.13;5.70;;;7.70;1.00;;;;;;5075208;28;20277;-71
2022/02/15 05:28:37;;;;;;;6.97;4.87;;;7.80;1.00;;;;;;5076534;28;20183;-71
2022/02/15 05:31:05;;;;;;;7.63;5.10;;;7.90;1.00;;;;;;5077017;28;20416;-71
2022/02/15 05:33:31;;;;;;;12.37;4.70;;;7.80;1.00;;;;;;5087152;28;20179;-71
2022/02/15 05:35:57;;;;;;;6.93;4.83;;;7.70;1.00;;;;;;5080310;28;20490;-72
2022/02/15 05:38:23;;;;;;;8.00;4.60;;;7.70;1.00;;;;;;5075041;28;20955;-71
2022/02/15 05:40:48;;;;;;;10.63;5.13;;;7.70;1.00;;;;;;5078186;28;20167;-71
2022/02/15 05:43:17;;;;;;;7.17;4.47;;;7.70;1.00;;;;;;5086349;28;20211;-71
2022/02/15 05:45:44;;;;;;;10.83;4.93;;;7.70;1.00;;;;;;5085981;28;20707;-71
2022/02/15 05:48:11;;;;;;;6.73;5.33;;;7.70;1.00;;;;;;5083225;28;20508;-73
2022/02/15 05:50:51;;;;;;;8.37;5.20;;;7.70;1.00;;;;;;5090522;28;20392;-73
2022/02/15 05:53:29;;;;;;;7.90;4.90;;;8.20;1.00;;;;;;5076086;28;20416;-73
2022/02/15 05:56:01;;;;;;;7.50;5.53;;;7.70;1.00;;;;;;5086690;28;20436;-73
2022/02/15 05:58:28;;;;;;;11.87;5.77;;;7.70;1.00;;;;;;5096153;28;20416;-72
2022/02/15 06:00:54;;;;;;;9.80;5.43;;;7.70;1.00;;;;;;5084735;28;20910;-73
2022/02/15 06:06:04;;;;;;;12.07;5.37;;;7.70;1.00;;;;;;5076407;28;20534;-71
2022/02/15 06:08:31;;;;;;;6.93;5.27;;;7.70;1.00;;;;;;5088452;28;20417;-72
2022/02/15 06:10:57;;;;;;;7.27;5.40;;;7.70;1.00;;;;;;5088992;28;20413;-72
2022/02/15 06:13:23;;;;;;;9.13;5.67;;;7.70;1.00;;;;;;5082780;28;20478;-72
2022/02/15 06:15:49;;;;;;;7.40;5.30;;;7.70;1.00;;;;;;5082720;28;20737;-71
2022/02/15 06:18:15;;;;;;;11.87;5.87;;;7.70;1.00;;;;;;5083786;28;20785;-73
2022/02/15 06:20:41;;;;;;;7.13;5.53;;;7.70;1.00;;;;;;5075294;28;20410;-75
2022/02/15 06:23:24;;;;;;;9.47;6.07;;;7.70;1.00;;;;;;5089572;28;20495;-76
2022/02/15 06:25:49;;;;;;;9.50;6.20;;;7.70;1.00;;;;;;5081134;28;20393;-75
2022/02/15 06:28:24;;;;;;;9.97;5.80;;;7.70;1.00;;;;;;5079722;28;20920;-76
2022/02/15 06:30:50;;;;;;;10.50;6.50;;;7.80;1.00;;;;;;5084927;28;20202;-76
2022/02/15 06:33:18;;;;;;;8.30;6.13;;;7.80;1.00;;;;;;5079333;28;20469;-75
2022/02/15 06:35:43;;;;;;;9.30;5.60;;;8.20;1.00;;;;;;5082169;28;20193;-75
2022/02/15 06:38:09;;;;;;;9.93;5.80;;;7.70;1.00;;;;;;5076867;28;21052;-75
2022/02/15 06:40:35;;;;;;;7.40;5.20;;;7.70;1.00;;;;;;5093707;28;20159;-76
2022/02/15 06:43:01;;;;;;;15.43;5.87;;;7.70;1.00;;;;;;5088190;28;20215;-76
2022/02/15 06:45:28;;;;;;;9.40;6.10;;;7.70;1.00;;;;;;5077015;28;20405;-76
2022/02/15 06:48:00;;;;;;;10.43;5.60;;;;;;;;;;5073748;28;20260;-76
2022/02/15 06:50:30;;;;;;;10.40;6.00;;;7.70;1.00;;;;;;5081636;28;20792;-75
2022/02/15 06:53:01;;;;;;;9.90;5.60;;;7.70;1.00;;;;;;5090095;28;20433;-75
2022/02/15 06:55:27;;;;;;;20.43;6.07;;;7.70;1.00;;;;;;5079131;28;20482;-76
2022/02/15 06:57:59;;;;;;;10.20;6.20;;;8.10;1.00;;;;;;5081683;28;20491;-76
2022/02/15 07:00:33;;;;;;;10.63;6.23;;;7.70;1.00;;;;;;5084491;28;20420;-76
2022/02/15 07:02:59;;;;;;;12.70;6.03;;;7.70;1.00;;;;;;5073568;28;20405;-76
2022/02/15 07:05:24;;;;;;;13.13;5.97;;;7.80;1.00;;;;;;5089189;28;20918;-74
2022/02/15 07:07:51;;;;;;;10.20;5.90;;;7.60;1.00;;;;;;5087275;28;20201;-74
2022/02/15 07:10:17;;;;;;;10.23;6.60;;;7.70;1.00;;;;;;5082456;28;20167;-74
2022/02/15 07:12:42;;;;;;;7.93;5.37;;;7.70;1.00;;;;;;5081841;28;20431;-74
2022/02/15 07:15:13;;;;;;;8.50;5.33;;;7.70;1.00;;;;;;5099182;28;20413;-74
2022/02/15 07:17:40;;;;;;;10.37;5.80;;;7.70;1.00;;;;;;5081369;28;20174;-74
2022/02/15 07:20:07;;;;;;;13.60;5.60;;;7.80;1.00;;;;;;5086439;28;20446;-74
2022/02/15 07:22:34;;;;;;;8.33;5.67;;;7.80;1.00;;;;;;5083662;28;20786;-74
2022/02/15 07:25:00;;;;;;;10.47;6.23;;;7.90;1.00;;;;;;5081830;28;20432;-74
2022/02/15 07:27:26;;;;;;;11.40;6.47;;;7.90;1.00;;;;;;5077834;28;20457;-74
2022/02/15 07:29:53;;;;;;;11.23;5.63;;;7.90;1.00;;;;;;5086303;28;20470;-74
2022/02/15 07:32:23;;;;;;;12.40;5.30;;;8.00;1.00;;;;;;5090496;28;20229;-74
2022/02/15 07:34:51;;;;;;;7.70;4.90;;;8.00;1.00;;;;;;5079841;28;20413;-74
2022/02/15 07:37:17;;;;;;;6.20;4.73;;;8.00;1.00;;;;;;5085000;28;20417;-74
2022/02/15 07:39:42;;;;;;;9.83;5.57;;;8.00;1.00;;;;;;5089594;28;20416;-74
2022/02/15 07:42:18;;;;;;;12.07;4.33;;;8.00;1.00;;;;;;5081672;28;20447;-75
2022/02/15 07:44:44;;;;;;;7.97;5.30;;;8.10;1.00;;;;;;5085343;28;20188;-75
2022/02/15 07:47:12;;;;;;;14.73;5.07;;;8.20;1.00;;;;;;5084464;28;20445;-74
2022/02/15 07:49:42;;;;;;;15.13;5.17;;;8.30;1.00;;;;;;5074805;28;20168;-77
2022/02/15 07:52:26;;;;;;;19.83;8.40;;;8.50;1.00;;;;;;5088396;28;20413;-77
2022/02/15 07:54:51;;;;;;;17.97;7.17;;;8.60;1.00;;;;;;5088351;28;20489;-77
2022/02/15 07:57:18;;;;;;;14.63;6.10;;;8.50;1.00;;;;;;5087951;28;20456;-78
2022/02/15 07:59:53;;;;;;;9.30;5.10;;;8.60;1.00;;;;;;5089076;28;20725;-81
2022/02/15 08:02:24;;;;;;;11.20;4.97;;;8.80;1.00;;;;;;5084341;28;20408;-80
2022/02/15 08:05:29;;;;;;;9.77;5.60;;;8.80;1.00;;;;;;5083488;28;20899;-80
2022/02/15 08:07:56;;;;;;;15.77;5.17;;;8.80;1.00;;;;;;5080140;28;20455;-81
2022/02/15 08:10:25;;;;;;;6.80;4.77;;;8.80;1.00;;;;;;5083785;28;20445;-81
2022/02/15 08:13:24;;;;;;;7.30;4.33;;;8.90;1.00;;;;;;5087465;28;20409;-84
2022/02/15 08:15:50;;;;;;;9.80;4.53;;;8.70;1.00;;;;;;5078013;28;20891;-77
2022/02/15 08:18:18;;;;;;;10.80;5.63;;;8.70;1.00;;;;;;5077399;28;20957;-82
2022/02/15 08:20:44;;;;;;;7.87;5.50;;;8.90;1.00;;;;;;5083114;28;20443;-74
2022/02/15 08:23:10;;;;;;;7.57;5.10;;;9.00;1.00;;;;;;5084229;28;20417;-74
2022/02/15 08:25:36;;;;;;;9.03;5.63;;;9.10;1.00;;;;;;5081757;28;20495;-74
2022/02/15 08:28:02;;;;;;;10.27;4.43;;;9.10;1.00;;;;;;5069884;28;20457;-74
2022/02/15 08:30:28;;;;;;;12.03;4.73;;;9.00;1.00;;;;;;5075255;28;20413;-74
2022/02/15 08:32:54;;;;;;;8.47;5.07;;;9.00;1.00;;;;;;5080526;28;20420;-74
2022/02/15 08:35:20;;;;;;;9.33;5.40;;;9.10;1.00;;;;;;5091566;28;20246;-74
2022/02/15 08:37:54;;;;;;;11.57;5.30;;;9.20;1.00;;;;;;5080438;28;20206;-74
2022/02/15 08:40:21;;;;;;;4.83;3.80;;;9.20;1.00;;;;;;5081831;28;20490;-73
2022/02/15 08:42:47;;;;;;;8.37;4.73;;;9.20;1.00;;;;;;5089974;28;20815;-74
2022/02/15 08:45:13;;;;;;;10.67;5.43;;;9.40;1.00;;;;;;5094502;28;20421;-74
2022/02/15 08:47:40;;;;;;;4.90;3.80;;;9.40;1.00;;;;;;5073827;28;20504;-74
2022/02/15 08:50:08;;;;;;;7.77;4.77;;;9.20;1.00;;;;;;5079510;28;20405;-74
2022/02/15 08:52:36;;;;;;;6.23;4.50;;;9.20;1.00;;;;;;5083386;28;20535;-74
2022/02/15 08:55:02;;;;;;;10.13;5.00;;;9.20;1.00;;;;;;5089535;28;20443;-74
2022/02/15 08:57:28;;;;;;;10.87;5.30;;;9.20;1.00;;;;;;5083781;28;20457;-74
2022/02/15 08:59:54;;;;;;;8.57;4.50;;;9.30;1.00;;;;;;5081099;28;20429;-74
2022/02/15 09:02:24;;;;;;;9.37;4.97;;;9.80;1.00;;;;;;5084034;28;20235;-74
2022/02/15 09:04:50;;;;;;;8.33;5.03;;;9.40;1.00;;;;;;5082916;28;20185;-76
2022/02/15 09:07:24;;;;;;;5.20;3.50;;;9.40;1.00;;;;;;5086288;28;20459;-76
2022/02/15 09:09:53;;;;;;;8.27;4.17;;;9.40;1.00;;;;;;5080970;28;20811;-76
2022/02/15 09:12:24;;;;;;;7.37;4.57;;;9.40;1.00;;;;;;5080768;28;20788;-77
2022/02/15 09:14:50;;;;;;;11.83;3.50;;;9.50;1.00;;;;;;5091337;28;20416;-76
2022/02/15 09:17:18;;;;;;;7.90;4.20;;;9.40;1.00;;;;;;5097231;28;20404;-77
2022/02/15 09:19:54;;;;;;;7.60;4.80;;;9.60;1.00;;;;;;5090118;28;20171;-74
2022/02/15 09:22:24;;;;;;;7.23;4.53;;;9.80;1.00;;;;;;5084684;28;20434;-74
2022/02/15 09:24:51;;;;;;;6.60;4.37;;;9.80;1.00;;;;;;5089116;28;20813;-73
2022/02/15 09:27:17;;;;;;;6.60;4.10;;;;;;;;;;5083357;28;20554;-74
2022/02/15 09:29:48;;;;;;;10.03;4.30;;;9.80;1.00;;;;;;5089048;28;20887;-74
2022/02/15 09:32:13;;;;;;;6.00;4.20;;;9.90;1.00;;;;;;5095783;28;20423;-74
2022/02/15 09:34:39;;;;;;;11.37;5.30;;;9.80;1.00;;;;;;5090125;28;20931;-74
2022/02/15 09:37:05;;;;;;;6.70;4.13;;;9.80;1.00;;;;;;5087862;28;20618;-74
2022/02/15 09:39:30;;;;;;;5.67;3.80;;;9.90;1.00;;;;;;5091687;28;20241;-74
2022/02/15 09:41:57;;;;;;;9.43;3.90;;;9.70;1.00;;;;;;5092213;28;20184;-74
2022/02/15 09:44:23;;;;;;;5.87;3.93;;;9.90;1.00;;;;;;5090645;28;20189;-74
2022/02/15 09:46:49;;;;;;;3.60;3.10;;;9.80;1.00;;;;;;5076433;28;20460;-74
2022/02/15 09:52:12;;;;;;;4.00;3.20;;;9.90;1.00;;;;;;5088083;28;20938;-77
2022/02/15 09:54:50;;;;;;;5.30;3.13;;;9.90;1.00;;;;;;5078855;28;20441;-77
2022/02/15 09:57:17;;;;;;;3.83;2.83;;;9.90;1.00;;;;;;5075941;28;20932;-76
2022/02/15 09:59:43;;;;;;;3.87;3.07;;;10.10;1.00;;;;;;5095038;28;21083;-76
2022/02/15 10:02:17;;;;;;;3.10;2.80;;;9.90;1.00;;;;;;5079947;28;20512;-76
2022/02/15 10:04:55;;;;;;;5.37;2.53;;;9.70;1.00;;;;;;5088877;28;20174;-76
2022/02/15 10:07:22;;;;;;;3.13;2.20;;;9.70;1.00;;;;;;5084655;28;20456;-74
2022/02/15 10:09:51;;;;;;;2.77;2.40;;;9.80;1.00;;;;;;5079518;28;20439;-74
2022/02/15 10:12:19;;;;;;;2.67;2.47;;;9.90;1.00;;;;;;5086673;28;20511;-74
2022/02/15 10:14:47;;;;;;;2.10;2.00;;;10.00;1.00;;;;;;5076952;28;20421;-74
2022/02/15 10:17:15;;;;;;;2.30;2.10;;;10.00;1.00;;;;;;5076596;28;20432;-74
2022/02/15 10:19:43;;;;;;;2.67;2.27;;;10.00;1.00;;;;;;5089078;28;20546;-74
2022/02/15 10:22:20;;;;;;;5.47;2.53;;;10.10;1.00;;;;;;5076925;28;20392;-76
2022/02/15 10:24:54;;;;;;;2.27;2.10;;;10.10;1.00;;;;;;5075204;28;20421;-77
2022/02/15 10:27:28;;;;;;;5.37;1.93;;;10.10;1.00;;;;;;5088017;28;20473;-76
2022/02/15 10:29:54;;;;;;;3.13;1.80;;;10.30;1.00;;;;;;5093677;28;20809;-76
2022/02/15 10:32:25;;;;;;;2.83;1.87;;;10.40;1.00;;;;;;5089164;28;20457;-76
2022/02/15 10:34:58;;;;;;;1.87;1.70;;;10.50;1.00;;;;;;5075622;28;20488;-76
2022/02/15 10:37:29;;;;;;;2.93;1.83;;;10.60;1.00;;;;;;5082567;28;20417;-76
2022/02/15 10:40:00;;;;;;;1.60;1.50;;;10.50;1.00;;;;;;5084568;28;20410;-76
2022/02/15 10:42:31;;;;;;;4.47;2.10;;;10.60;1.00;;;;;;5092605;28;20819;-77
2022/02/15 10:45:05;;;;;;;2.70;1.80;;;10.40;1.00;;;;;;5092747;28;20426;-76
2022/02/15 10:47:45;;;;;;;2.40;1.60;;;10.50;1.00;;;;;;5085424;28;20457;-76
2022/02/15 10:50:15;;;;;;;4.83;1.33;;;10.70;1.00;;;;;;5080085;28;20447;-76
2022/02/15 10:52:41;;;;;;;3.50;2.20;;;10.80;1.00;;;;;;5086093;28;20388;-74
2022/02/15 10:55:08;;;;;;;2.57;1.90;;;10.90;1.00;;;;;;5074490;28;20906;-74
2022/02/15 10:57:36;;;;;;;1.30;1.20;;;10.90;1.00;;;;;;5094501;28;20416;-73
2022/02/15 11:00:07;;;;;;;1.20;1.10;;;11.00;1.00;;;;;;5085668;28;20901;-73
2022/02/15 11:02:34;;;;;;;1.50;1.40;;;11.00;1.00;;;;;;5077103;28;20833;-74
2022/02/15 11:05:03;;;;;;;6.23;1.70;;;11.10;1.00;;;;;;5091348;28;20421;-74
2022/02/15 11:07:38;;;;;;;1.00;1.00;;;11.00;1.00;;;;;;5082536;28;20461;-73
2022/02/15 11:10:39;;;;;;;5.07;1.33;;;10.90;1.00;;;;;;5082753;28;20433;-74
2022/02/15 11:13:06;;;;;;;1.77;1.10;;;10.80;1.00;;;;;;5074086;28;20448;-74
2022/02/15 11:15:34;;;;;;;1.17;1.07;;;10.80;1.00;;;;;;5080135;28;20421;-74
2022/02/15 11:18:02;;;;;;;1.00;1.00;;;10.90;1.00;;;;;;5074527;28;20391;-74
2022/02/15 11:20:50;;;;;;;1.90;1.30;;;11.00;1.00;;;;;;5075442;28;20410;-73
2022/02/15 11:23:20;;;;;;;1.63;1.00;;;11.00;1.00;;;;;;5084983;28;20408;-76
2022/02/15 11:26:22;;;;;;;3.97;1.20;;;11.00;1.00;;;;;;5080802;28;20424;-76
2022/02/15 11:28:52;;;;;;;1.13;1.13;;;10.90;1.00;;;;;;5012318;28;20847;-76
2022/02/15 11:31:42;;;;;;;14.67;1.50;;;10.80;1.00;;;;;;4988145;28;20831;-76
2022/02/15 11:34:13;;;;;;;1.00;1.00;;;10.80;1.00;;;;;;4993503;28;20502;-76
2022/02/15 11:36:59;;;;;;;1.17;1.07;;;10.70;1.00;;;;;;5016575;28;20419;-76
2022/02/15 11:39:42;;;;;;;2.90;1.20;;;10.60;1.00;;;;;;5016110;28;20881;-77
2022/02/15 11:42:16;;;;;;;1.00;1.00;;;10.50;1.00;;;;;;5013659;28;20417;-76
2022/02/15 11:44:48;;;;;;;0.80;0.80;;;10.70;1.00;;;;;;5012237;28;20965;-77
2022/02/15 11:47:20;;;;;;;1.57;0.83;;;10.80;1.00;;;;;;5012309;28;20490;-76
2022/02/15 11:49:54;;;;;;;1.27;1.17;;;11.10;1.00;;;;;;5007455;28;20428;-78
2022/02/15 11:52:26;;;;;;;0.80;0.80;;;11.00;1.00;;;;;;5010240;28;21015;-74
2022/02/15 11:54:54;;;;;;;1.13;1.03;;;11.00;1.00;;;;;;4997596;28;20417;-73
2022/02/15 11:57:21;;;;;;;4.07;1.17;;;11.00;1.00;;;;;;5009036;28;20435;-73
2022/02/15 11:59:52;;;;;;;1.13;1.03;;;11.00;1.00;;;;;;5009301;28;20440;-74
2022/02/15 12:02:24;;;;;;;0.80;0.80;;;11.00;1.00;;;;;;5006182;28;20449;-73
2022/02/15 12:04:59;;;;;;;0.97;0.90;;;10.70;1.00;;;;;;5062594;28;20425;-73
2022/02/15 12:07:29;;;;;;;1.00;0.90;;;10.70;1.00;;;;;;5083642;28;20454;-73
2022/02/15 12:10:07;;;;;;;1.83;1.00;;;10.70;1.00;;;;;;5084057;28;20420;-77
2022/02/15 12:12:53;;;;;;;0.60;0.60;;;10.70;1.00;;;;;;5080282;28;20417;-81
2022/02/15 12:15:21;;;;;;;0.80;0.80;;;10.60;1.00;;;;;;5084217;28;20401;-74
2022/02/15 12:17:48;;;;;;;0.97;0.90;;;10.60;1.00;;;;;;5090209;28;20400;-74
2022/02/15 12:20:19;;;;;;;0.80;0.80;;;10.60;1.00;;;;;;5082058;28;20458;-75
2022/02/15 12:22:48;;;;;;;1.17;0.80;;;10.60;1.00;;;;;;5076828;28;20803;-74
2022/02/15 12:25:14;;;;;;;0.97;0.90;;;10.50;1.00;;;;;;5078904;28;20420;-74
2022/02/15 12:27:48;;;;;;;8.63;1.43;;;10.60;1.00;;;;;;5072830;28;20523;-74
2022/02/15 12:30:18;;;;;;;0.90;0.90;;;10.80;1.00;;;;;;5084606;28;20497;-76
2022/02/15 12:32:48;;;;;;;1.37;1.23;;;11.00;1.00;;;;;;5092351;28;20739;-75
2022/02/15 12:35:25;;;;;;;1.13;1.03;;;11.20;1.00;;;;;;5088441;28;20429;-75
2022/02/15 12:37:59;;;;;;;1.50;1.07;;;11.00;1.00;;;;;;5088119;28;20958;-75
2022/02/15 12:40:25;;;;;;;1.70;0.93;;;11.00;1.00;;;;;;5077788;28;20766;-75
2022/02/15 12:42:52;;;;;;;0.80;0.80;;;11.20;1.00;;;;;;5090991;28;20904;-74
2022/02/15 12:45:18;;;;;;;0.90;0.80;;;11.20;1.00;;;;;;5087613;28;20439;-74
2022/02/15 12:47:44;;;;;;;1.83;0.80;;;11.20;1.00;;;;;;5082738;28;20435;-74
2022/02/15 12:50:12;;;;;;;0.90;0.90;;;11.20;1.00;;;;;;5077101;28;20236;-74
2022/02/15 12:52:48;;;;;;;0.80;0.80;;;11.20;1.00;;;;;;5077490;28;20244;-76
2022/02/15 12:55:15;;;;;;;1.77;0.90;;;11.10;1.00;;;;;;5079921;28;20851;-76
2022/02/15 12:57:43;;;;;;;0.83;0.83;;;10.80;1.00;;;;;;5077006;28;20476;-76
2022/02/15 13:00:10;;;;;;;0.60;0.60;;;10.80;1.00;;;;;;5077306;28;20391;-78
2022/02/15 13:02:46;;;;;;;2.20;0.70;;;10.80;1.00;;;;;;5089252;28;20807;-77
2022/02/15 13:05:29;;;;;;;0.73;0.60;;;10.70;1.00;;;;;;5080698;28;20408;-78
2022/02/15 13:08:00;;;;;;;1.13;0.80;;;10.70;1.00;;;;;;5077205;28;20502;-81
2022/02/15 13:10:58;;;;;;;0.77;0.77;;;10.60;1.00;;;;;;5077047;28;20413;-79
2022/02/15 13:13:26;;;;;;;4.20;0.87;;;10.60;1.00;;;;;;5090468;28;20404;-78
2022/02/15 13:16:04;;;;;;;0.70;0.70;;;10.60;1.00;;;;;;5084438;28;20456;-79
2022/02/15 13:18:46;;;;;;;0.40;0.40;;;10.60;1.00;;;;;;5085806;28;20896;-79